Time;durP1;ratioP1;P1;durP2;ratioP2;P2;SDS_P1;SDS_P2;PMS_P1;PMS_P2;Temp;Humidity;BMP_temperature;BMP_pressure;BME280_temperature;BME280_humidity;BME280_pressure;Samples;Min_cycle;Max_cycle;Signal;HPM_P1;HPM_P2
2024/04/15 00:00:42;;;;;;;4.32;2.28;;;;;;;14.08;91.89;100896.13;5408717;26;20496;-74
2024/04/15 00:03:08;;;;;;;5.85;1.63;;;;;;;14.05;91.95;100887.75;5410252;26;20023;-74
2024/04/15 00:05:33;;;;;;;1.98;1.70;;;;;;;14.00;91.97;100895.25;5406629;26;20007;-74
2024/04/15 00:07:58;;;;;;;3.13;1.73;;;;;;;13.97;92.04;100887.72;5406542;26;20015;-73
2024/04/15 00:10:24;;;;;;;4.18;1.75;;;;;;;13.96;92.41;100889.50;5409956;26;20019;-73
2024/04/15 00:12:51;;;;;;;5.65;1.63;;;;;;;13.96;92.21;100884.28;5410938;26;20374;-74
2024/04/15 00:15:17;;;;;;;2.53;1.60;;;;;;;13.96;92.24;100876.41;5407108;26;20008;-74
2024/04/15 00:17:42;;;;;;;3.75;1.85;;;;;;;13.93;92.26;100864.44;5406394;26;20338;-74
2024/04/15 00:20:08;;;;;;;2.47;1.48;;;;;;;13.92;92.52;100864.59;5407294;26;20014;-74
2024/04/15 00:22:33;;;;;;;3.55;2.13;;;;;;;13.81;91.92;100870.94;5420483;26;20032;-74
2024/04/15 00:24:59;;;;;;;5.35;1.73;;;;;;;13.80;93.02;100865.84;5403176;26;20053;-74
2024/04/15 00:27:24;;;;;;;6.72;1.95;;;;;;;13.83;93.16;100855.06;5407781;26;20423;-74
2024/04/15 00:29:50;;;;;;;2.97;2.20;;;;;;;13.82;92.79;100854.22;5406685;26;20011;-74
2024/04/15 00:32:15;;;;;;;5.70;1.98;;;;;;;13.82;93.03;100840.31;5415906;26;20043;-74
2024/04/15 00:34:40;;;;;;;4.85;1.50;;;;;;;13.84;92.42;100843.59;5410612;26;20027;-73
2024/04/15 00:37:06;;;;;;;7.13;1.73;;;;;;;13.79;91.57;100838.00;5408457;26;20508;-73
2024/04/15 00:39:31;;;;;;;3.22;1.45;;;;;;;13.79;91.19;100838.00;5415966;26;20101;-74
2024/04/15 00:41:57;;;;;;;2.88;1.58;;;;;;;13.77;91.13;100839.97;5410180;26;20004;-73
2024/04/15 00:44:32;;;;;;;5.28;2.00;;;;;;;13.73;91.58;100833.38;5408736;26;20852;-74
2024/04/15 00:46:58;;;;;;;2.78;1.20;;;;;;;13.70;91.37;100831.94;5401063;26;20011;-73
2024/04/15 00:49:24;;;;;;;2.38;1.67;;;;;;;13.70;91.83;100825.88;5405270;26;20067;-74
2024/04/15 00:51:49;;;;;;;5.45;1.50;;;;;;;13.70;92.25;100828.50;5404539;26;20011;-74
2024/04/15 00:54:15;;;;;;;4.00;1.60;;;;;;;13.64;91.90;100822.09;5408075;26;20482;-74
2024/04/15 00:56:41;;;;;;;5.47;1.48;;;;;;;13.59;91.76;100817.31;5411361;26;20027;-74
2024/04/15 00:59:09;;;;;;;2.63;1.58;;;;;;;13.58;91.73;100814.84;5407424;26;20469;-74
2024/04/15 01:01:34;;;;;;;4.05;1.67;;;;;;;13.45;90.97;100812.63;5412253;26;20011;-74
2024/04/15 01:04:00;;;;;;;2.35;0.90;;;;;;;13.48;90.04;100799.25;5417008;26;20367;-74
2024/04/15 01:06:25;;;;;;;4.13;1.20;;;;;;;13.62;88.41;100805.72;5412525;26;20141;-74
2024/04/15 01:08:50;;;;;;;4.40;1.52;;;;;;;13.70;87.79;100800.50;5393748;26;20019;-74
2024/04/15 01:11:16;;;;;;;3.17;1.20;;;;;;;13.70;87.67;100807.56;5405940;26;20016;-74
2024/04/15 01:13:41;;;;;;;6.53;1.30;;;;;;;13.71;87.20;100794.28;5409760;26;20011;-73
2024/04/15 01:16:07;;;;;;;2.90;1.10;;;;;;;13.71;88.15;100790.84;5409182;26;20015;-74
2024/04/15 01:18:32;;;;;;;2.25;1.00;;;;;;;13.65;87.63;100788.88;5404715;26;20520;-74
2024/04/15 01:20:58;;;;;;;1.90;1.30;;;;;;;13.60;88.62;100791.94;5412512;26;21045;-74
2024/04/15 01:23:28;;;;;;;9.30;1.23;;;;;;;13.55;88.96;100792.41;5406983;26;20359;-74
2024/04/15 01:25:54;;;;;;;1.70;0.73;;;;;;;13.49;89.20;100781.75;5415860;26;20126;-74
2024/04/15 01:28:20;;;;;;;2.30;1.25;;;;;;;13.45;89.15;100783.84;5411043;26;20003;-74
2024/04/15 01:30:46;;;;;;;3.22;0.90;;;;;;;13.41;89.66;100776.47;5408199;26;20467;-73
2024/04/15 01:33:12;;;;;;;3.83;1.27;;;;;;;13.32;89.78;100770.34;5407147;26;20012;-74
2024/04/15 01:35:37;;;;;;;8.20;1.40;;;;;;;13.25;89.16;100762.28;5410270;26;20027;-74
2024/04/15 01:38:03;;;;;;;3.42;1.48;;;;;;;13.19;89.45;100768.16;5407577;26;20508;-74
2024/04/15 01:40:29;;;;;;;3.95;1.27;;;;;;;13.22;90.20;100769.66;5412285;26;20097;-73
2024/04/15 01:42:54;;;;;;;3.08;1.48;;;;;;;13.22;89.65;100759.19;5409014;26;20081;-74
2024/04/15 01:45:21;;;;;;;4.07;1.48;;;;;;;13.22;90.30;100751.34;5407625;26;20357;-74
2024/04/15 01:47:47;;;;;;;5.90;1.20;;;;;;;13.19;90.03;100741.19;5410181;26;20012;-74
2024/04/15 01:50:14;;;;;;;4.22;1.60;;;;;;;13.18;90.04;100739.56;5401701;26;20061;-74
2024/04/15 01:52:40;;;;;;;3.55;1.40;;;;;;;13.16;90.64;100742.31;5403160;26;20023;-74
2024/04/15 01:55:06;;;;;;;2.55;1.63;;;;;;;13.18;90.73;100744.78;5409524;26;20015;-74
2024/04/15 01:57:31;;;;;;;2.45;1.83;;;;;;;13.15;90.22;100739.81;5411904;26;20018;-74
2024/04/15 01:59:57;;;;;;;3.30;1.40;;;;;;;13.12;90.46;100740.13;5410334;26;20021;-74
2024/04/15 02:02:22;;;;;;;2.65;1.58;;;;;;;13.12;90.53;100734.91;5410124;26;20065;-74
2024/04/15 02:04:47;;;;;;;2.88;1.23;;;;;;;13.32;87.19;100731.09;5408648;26;20011;-74
2024/04/15 02:07:13;;;;;;;3.65;1.10;;;;;;;13.46;86.92;100727.91;5407983;26;20015;-74
2024/04/15 02:09:38;;;;;;;3.17;0.80;;;;;;;13.71;83.64;100723.56;5402179;26;20012;-74
2024/04/15 02:12:04;;;;;;;7.05;0.75;;;;;;;13.97;79.99;100714.81;5398730;26;20007;-74
2024/04/15 02:14:29;;;;;;;4.45;0.63;;;;;;;14.25;77.68;100713.53;5411531;26;20088;-74
2024/04/15 02:16:55;;;;;;;3.03;0.60;;;;;;;14.44;75.43;100713.28;5411762;26;20015;-74
2024/04/15 02:19:20;;;;;;;1.95;0.60;;;;;;;14.49;76.02;100704.91;5407017;26;20007;-75
2024/04/15 02:21:45;;;;;;;7.43;1.08;;;;;;;14.50;75.80;100704.75;5406367;26;20016;-73
2024/04/15 02:24:13;;;;;;;4.95;0.60;;;;;;;14.52;74.99;100705.41;5412336;26;20012;-74
2024/04/15 02:26:39;;;;;;;3.22;0.75;;;;;;;14.57;75.72;100699.69;5403041;26;20463;-74
2024/04/15 02:29:04;;;;;;;3.33;0.60;;;;;;;14.58;75.83;100693.44;5407533;26;20137;-74
2024/04/15 02:31:30;;;;;;;5.22;0.75;;;;;;;14.58;75.03;100690.84;5410324;26;20015;-74
2024/04/15 02:33:56;;;;;;;4.80;0.70;;;;;;;14.56;74.38;100685.75;5412092;26;20527;-74
2024/04/15 02:36:21;;;;;;;5.25;0.95;;;;;;;14.59;73.72;100689.84;5409185;26;20088;-74
2024/04/15 02:38:49;;;;;;;2.38;0.93;;;;;;;14.64;73.35;100679.69;5412331;26;20342;-74
2024/04/15 02:41:14;;;;;;;1.42;0.40;;;;;;;14.65;72.56;100683.91;5411419;26;20520;-74
2024/04/15 02:43:40;;;;;;;2.53;0.50;;;;;;;14.67;72.76;100689.81;5410215;26;20007;-74
2024/04/15 02:46:05;;;;;;;1.08;0.68;;;;;;;14.72;70.77;100681.44;5411413;26;20011;-74
2024/04/15 02:48:31;;;;;;;2.88;0.60;;;;;;;14.74;72.16;100676.88;5413182;26;20007;-74
2024/04/15 02:50:56;;;;;;;2.40;0.60;;;;;;;14.70;71.29;100667.69;5412785;26;20008;-74
2024/04/15 02:53:22;;;;;;;2.38;0.57;;;;;;;14.66;70.91;100664.56;5410781;26;20021;-75
2024/04/15 02:55:50;;;;;;;3.55;0.40;;;;;;;14.64;70.58;100658.72;5413655;26;20017;-73
2024/04/15 02:58:15;;;;;;;3.78;0.60;;;;;;;14.62;70.94;100657.22;5413596;26;20018;-75
2024/04/15 03:00:41;;;;;;;0.98;0.50;;;;;;;14.47;72.45;100647.41;5415024;26;20007;-75
2024/04/15 03:03:06;;;;;;;2.42;0.80;;;;;;;14.13;75.23;100650.19;5408662;26;20098;-74
2024/04/15 03:05:33;;;;;;;2.72;0.93;;;;;;;13.81;77.61;100644.88;5405802;26;20008;-74
2024/04/15 03:07:58;;;;;;;4.82;0.70;;;;;;;13.68;79.00;100637.50;5407050;26;20007;-74
2024/04/15 03:10:25;;;;;;;5.40;1.02;;;;;;;13.57;80.12;100641.25;5409091;26;20007;-75
2024/04/15 03:12:54;;;;;;;3.80;1.10;;;;;;;13.42;81.27;100637.59;5409844;26;20035;-74
2024/04/15 03:15:20;;;;;;;3.05;1.27;;;;;;;13.37;81.60;100634.63;5410533;26;20023;-74
2024/04/15 03:17:50;;;;;;;2.58;0.95;;;;;;;13.34;82.13;100627.09;5412345;26;20462;-74
2024/04/15 03:20:15;;;;;;;2.45;1.23;;;;;;;13.29;82.01;100624.13;5411216;26;20407;-74
2024/04/15 03:22:45;;;;;;;4.18;1.25;;;;;;;13.28;81.00;100619.88;5410376;26;20015;-74
2024/04/15 03:25:10;;;;;;;2.40;0.93;;;;;;;13.29;80.72;100611.03;5412840;26;20380;-74
2024/04/15 03:27:35;;;;;;;1.58;0.75;;;;;;;13.22;81.04;100604.84;5420863;26;20012;-75
2024/04/15 03:30:01;;;;;;;3.85;1.02;;;;;;;13.28;81.56;100598.94;5411900;26;20018;-74
2024/04/15 03:32:26;;;;;;;2.30;0.90;;;;;;;13.26;81.30;100601.72;5412030;26;20015;-74
2024/04/15 03:34:52;;;;;;;3.95;0.90;;;;;;;13.18;81.10;100593.03;5415998;26;20007;-74
2024/04/15 03:37:17;;;;;;;1.55;0.52;;;;;;;13.37;78.14;100584.91;5410134;26;20012;-75
2024/04/15 03:39:42;;;;;;;1.75;0.82;;;;;;;13.56;76.30;100575.97;5413242;26;20012;-75
2024/04/15 03:42:08;;;;;;;8.65;1.80;;;;;;;13.76;75.53;100574.66;5415874;26;20019;-74
2024/04/15 03:44:33;;;;;;;5.80;0.63;;;;;;;13.89;73.88;100569.75;5413002;26;20416;-74
2024/04/15 03:46:58;;;;;;;1.70;0.50;;;;;;;13.97;75.12;100568.94;5410058;26;20007;-75
2024/04/15 03:49:24;;;;;;;3.90;0.60;;;;;;;13.86;76.76;100561.41;5414784;26;20520;-74
2024/04/15 03:51:49;;;;;;;2.58;0.70;;;;;;;13.70;78.39;100562.25;5412760;26;20007;-74
2024/04/15 03:54:14;;;;;;;1.50;0.80;;;;;;;13.47;78.75;100556.81;5419787;26;20100;-74
2024/04/15 03:56:40;;;;;;;1.88;1.00;;;;;;;13.35;80.26;100558.06;5422479;26;20011;-74
2024/04/15 03:59:05;;;;;;;2.90;1.30;;;;;;;13.23;81.11;100544.47;5408261;26;20019;-74
2024/04/15 04:01:31;;;;;;;7.88;1.27;;;;;;;13.15;81.99;100546.25;5407846;26;20129;-74
2024/04/15 04:03:56;;;;;;;1.85;0.88;;;;;;;13.03;82.64;100543.09;5408016;26;20449;-74
2024/04/15 04:06:21;;;;;;;2.63;0.90;;;;;;;12.94;83.40;100542.22;5414062;26;20015;-74
2024/04/15 04:08:47;;;;;;;2.20;0.80;;;;;;;12.88;83.44;100544.66;5421611;26;20003;-74
2024/04/15 04:11:12;;;;;;;4.88;1.00;;;;;;;12.80;84.10;100545.44;5414235;26;20089;-74
2024/04/15 04:13:38;;;;;;;6.32;1.30;;;;;;;12.57;84.44;100539.13;5415983;26;21293;-74
2024/04/15 04:16:04;;;;;;;3.78;1.00;;;;;;;12.41;86.01;100537.25;5406920;26;20011;-74
2024/04/15 04:18:29;;;;;;;6.75;1.38;;;;;;;12.39;85.21;100543.59;5418409;26;20336;-73
2024/04/15 04:20:55;;;;;;;9.60;1.15;;;;;;;12.42;85.20;100543.28;5407327;26;20035;-74
2024/04/15 04:23:20;;;;;;;6.25;1.50;;;;;;;12.50;85.65;100543.34;5413761;26;20466;-74
2024/04/15 04:25:46;;;;;;;5.40;1.17;;;;;;;12.53;85.01;100535.19;5412418;26;20034;-74
2024/04/15 04:28:12;;;;;;;3.85;0.70;;;;;;;12.56;85.19;100540.09;5407159;26;20035;-73
2024/04/15 04:30:37;;;;;;;3.08;1.08;;;;;;;12.54;85.54;100534.22;5408800;26;20381;-74
2024/04/15 04:33:03;;;;;;;6.15;1.67;;;;;;;12.52;85.89;100530.94;5411631;26;20080;-74
2024/04/15 04:35:38;;;;;;;3.30;1.30;;;;;;;12.43;86.03;100543.13;5408970;26;20026;-74
2024/04/15 04:38:04;;;;;;;1.90;0.90;;;;;;;12.41;86.45;100539.84;5410412;26;20003;-73
2024/04/15 04:40:29;;;;;;;4.43;1.38;;;;;;;12.43;86.40;100535.28;5410109;26;20056;-74
2024/04/15 04:42:55;;;;;;;2.03;0.65;;;;;;;12.42;84.42;100538.06;5414395;26;20003;-74
2024/04/15 04:45:20;;;;;;;2.33;0.88;;;;;;;12.63;82.29;100530.66;5417987;26;20540;-73
2024/04/15 04:47:45;;;;;;;2.58;0.85;;;;;;;12.93;79.42;100530.13;5418366;26;20011;-74
2024/04/15 04:50:11;;;;;;;1.17;0.57;;;;;;;13.15;77.71;100530.53;5415822;26;20012;-73
2024/04/15 04:52:36;;;;;;;2.83;0.68;;;;;;;13.36;75.59;100528.31;5408174;26;20023;-74
2024/04/15 04:55:02;;;;;;;3.28;0.65;;;;;;;13.56;73.17;100523.59;5407026;26;20355;-74
2024/04/15 04:57:27;;;;;;;4.68;0.52;;;;;;;13.71;73.91;100529.81;5407193;26;20007;-74
2024/04/15 04:59:53;;;;;;;4.78;0.50;;;;;;;13.77;74.34;100521.31;5404546;26;20014;-74
2024/04/15 05:02:18;;;;;;;3.25;0.60;;;;;;;13.82;74.00;100519.03;5403670;26;20035;-74
2024/04/15 05:04:44;;;;;;;2.75;0.63;;;;;;;13.84;74.83;100513.63;5409060;26;20512;-75
2024/04/15 05:07:09;;;;;;;1.30;0.50;;;;;;;13.85;74.82;100521.31;5408189;26;20003;-73
2024/04/15 05:09:34;;;;;;;1.52;0.80;;;;;;;13.87;74.15;100521.97;5410466;26;20007;-74
2024/04/15 05:12:00;;;;;;;3.33;0.60;;;;;;;13.92;72.61;100522.28;5411402;26;20057;-74
2024/04/15 05:14:26;;;;;;;1.30;0.40;;;;;;;13.98;72.88;100525.25;5408893;26;20014;-74
2024/04/15 05:16:51;;;;;;;4.35;0.57;;;;;;;14.01;71.91;100525.72;5407816;26;20604;-74
2024/04/15 05:19:17;;;;;;;4.00;0.60;;;;;;;14.09;72.33;100525.72;5410239;26;20020;-74
2024/04/15 05:21:42;;;;;;;3.53;0.50;;;;;;;14.12;72.72;100525.41;5412287;26;20011;-74
2024/04/15 05:24:07;;;;;;;3.60;0.40;;;;;;;14.18;71.34;100522.09;5411613;26;20011;-74
2024/04/15 05:26:33;;;;;;;1.88;0.50;;;;;;;14.28;69.85;100524.53;5410929;26;20035;-74
2024/04/15 05:28:58;;;;;;;2.70;0.50;;;;;;;14.38;70.35;100527.78;5406214;26;20026;-74
2024/04/15 05:31:24;;;;;;;1.13;0.40;;;;;;;14.44;68.64;100523.72;5404701;26;20379;-74
2024/04/15 05:33:49;;;;;;;5.55;0.50;;;;;;;14.44;68.92;100521.91;5410785;26;20056;-74
2024/04/15 05:36:14;;;;;;;6.53;0.50;;;;;;;14.49;68.82;100510.94;5409134;26;20023;-74
2024/04/15 05:38:40;;;;;;;11.82;0.80;;;;;;;14.57;69.28;100516.16;5419613;26;20012;-74
2024/04/15 05:41:05;;;;;;;5.28;1.00;;;;;;;14.65;70.50;100520.53;5409049;26;20008;-74
2024/04/15 05:43:31;;;;;;;4.90;1.13;;;;;;;14.68;71.44;100520.19;5419207;26;20015;-74
2024/04/15 05:45:56;;;;;;;11.80;1.10;;;;;;;14.69;71.98;100519.19;5409040;26;20022;-74
2024/04/15 05:48:22;;;;;;;5.80;1.27;;;;;;;14.74;72.45;100515.06;5405450;26;20031;-74
2024/04/15 05:50:47;;;;;;;6.13;0.85;;;;;;;14.76;71.92;100501.78;5410505;26;20346;-74
2024/04/15 05:53:12;;;;;;;16.55;0.85;;;;;;;14.84;70.89;100507.81;5406788;26;20011;-74
2024/04/15 05:55:40;;;;;;;6.00;0.52;;;;;;;15.00;69.23;100503.50;5407715;26;20003;-74
2024/04/15 05:58:06;;;;;;;3.28;0.70;;;;;;;15.09;68.90;100503.28;5411205;26;20014;-74
2024/04/15 06:00:31;;;;;;;0.98;0.40;;;;;;;15.10;69.74;100506.72;5413429;26;20019;-74
2024/04/15 06:02:56;;;;;;;7.65;0.85;;;;;;;15.13;69.32;100506.34;5411740;26;20015;-74
2024/04/15 06:05:24;;;;;;;4.68;0.60;;;;;;;15.24;68.72;100506.78;5408534;26;20004;-74
2024/04/15 06:07:50;;;;;;;9.63;0.75;;;;;;;15.40;68.85;100505.06;5397098;26;20504;-74
2024/04/15 06:10:16;;;;;;;6.80;0.50;;;;;;;15.56;67.81;100500.53;5410920;26;20141;-73
2024/04/15 06:12:41;;;;;;;3.58;0.50;;;;;;;15.70;66.57;100506.00;5409922;26;20459;-74
2024/04/15 06:15:06;;;;;;;7.00;0.50;;;;;;;15.81;66.04;100497.69;5409470;26;20343;-74
2024/04/15 06:17:32;;;;;;;2.03;0.40;;;;;;;15.89;65.22;100492.38;5408982;26;20004;-74
2024/04/15 06:19:57;;;;;;;3.80;0.30;;;;;;;16.03;65.18;100499.47;5409627;26;20040;-74
2024/04/15 06:22:23;;;;;;;2.58;0.40;;;;;;;16.19;64.14;100490.59;5412351;26;20011;-74
2024/04/15 06:24:48;;;;;;;1.60;0.35;;;;;;;16.36;66.00;100475.47;5412257;26;20008;-75
2024/04/15 06:27:14;;;;;;;6.63;1.02;;;;;;;16.65;65.79;100490.44;5408454;26;20023;-74
2024/04/15 06:29:39;;;;;;;10.57;0.80;;;;;;;16.82;65.67;100479.53;5411798;26;20348;-70
2024/04/15 06:32:05;;;;;;;5.75;0.70;;;;;;;17.04;66.11;100477.72;5409051;26;20011;-70
2024/04/15 06:34:30;;;;;;;2.67;0.77;;;;;;;17.16;66.16;100473.59;5409520;26;20521;-70
2024/04/15 06:36:57;;;;;;;3.47;0.65;;;;;;;17.27;66.93;100471.50;5415123;26;20007;-70
2024/04/15 06:39:26;;;;;;;10.10;0.70;;;;;;;17.28;67.52;100471.31;5415850;26;20007;-70
2024/04/15 06:41:51;;;;;;;14.77;1.38;;;;;;;17.31;67.31;100463.03;5413788;26;20470;-69
2024/04/15 06:44:17;;;;;;;10.35;1.13;;;;;;;17.38;67.23;100461.28;5412112;26;20011;-71
2024/04/15 06:46:42;;;;;;;15.45;1.10;;;;;;;17.57;66.09;100457.16;5405901;26;20012;-71
2024/04/15 06:49:08;;;;;;;12.88;1.17;;;;;;;17.74;65.25;100455.09;5412307;26;20052;-70
2024/04/15 06:51:36;;;;;;;7.60;0.65;;;;;;;17.82;65.45;100457.59;5408055;26;20042;-68
2024/04/15 06:54:01;;;;;;;8.27;0.70;;;;;;;17.94;65.29;100461.34;5414093;26;20019;-68
2024/04/15 06:56:27;;;;;;;3.45;0.70;;;;;;;18.00;64.97;100457.91;5410415;26;20084;-69
2024/04/15 06:58:52;;;;;;;4.32;0.40;;;;;;;17.96;64.01;100459.31;5411330;26;20011;-69
2024/04/15 07:01:17;;;;;;;6.60;0.80;;;;;;;18.11;63.79;100451.28;5411408;26;20022;-68
2024/04/15 07:03:43;;;;;;;2.45;0.63;;;;;;;18.39;63.28;100451.25;5406424;26;20084;-68
2024/04/15 07:06:08;;;;;;;7.85;1.00;;;;;;;18.55;63.70;100448.28;5415215;26;20347;-69
2024/04/15 07:08:34;;;;;;;12.48;1.05;;;;;;;18.73;63.55;100445.13;5410107;26;20065;-68
2024/04/15 07:10:59;;;;;;;8.15;1.20;;;;;;;18.93;62.46;100445.16;5413625;26;20015;-69
2024/04/15 07:13:24;;;;;;;3.92;1.27;;;;;;;19.06;62.26;100442.56;5412875;26;20004;-68
2024/04/15 07:15:50;;;;;;;5.75;0.55;;;;;;;19.22;61.19;100436.91;5411479;26;20035;-69
2024/04/15 07:18:15;;;;;;;3.03;0.65;;;;;;;19.45;62.08;100429.38;5409075;26;20027;-68
2024/04/15 07:20:41;;;;;;;1.73;0.40;;;;;;;19.66;60.88;100433.69;5409688;26;20540;-67
2024/04/15 07:23:06;;;;;;;2.35;0.50;;;;;;;19.91;60.68;100435.69;5411345;26;20212;-68
2024/04/15 07:25:32;;;;;;;4.13;0.43;;;;;;;19.91;60.26;100431.22;5405453;26;20401;-69
2024/04/15 07:27:57;;;;;;;3.60;0.47;;;;;;;19.93;60.47;100437.09;5412528;26;20007;-68
2024/04/15 07:30:22;;;;;;;2.30;0.45;;;;;;;19.99;59.34;100433.66;5410475;26;20011;-69
2024/04/15 07:32:48;;;;;;;1.45;0.50;;;;;;;20.02;59.33;100429.78;5412935;26;20026;-68
2024/04/15 07:35:13;;;;;;;7.05;0.52;;;;;;;20.12;60.25;100435.44;5412289;26;20482;-68
2024/04/15 07:37:39;;;;;;;7.43;0.47;;;;;;;20.29;59.35;100431.34;5402777;26;20012;-68
2024/04/15 07:40:05;;;;;;;4.82;0.47;;;;;;;20.34;59.28;100434.16;5408326;26;20014;-68
2024/04/15 07:42:31;;;;;;;4.40;0.50;;;;;;;20.46;59.90;100437.00;5406824;26;20012;-69
2024/04/15 07:44:56;;;;;;;11.38;0.50;;;;;;;20.40;59.21;100433.34;5408997;26;20020;-68
2024/04/15 07:47:22;;;;;;;2.05;0.40;;;;;;;20.45;60.01;100436.19;5410251;26;20034;-69
2024/04/15 07:49:47;;;;;;;8.10;0.70;;;;;;;20.73;59.54;100435.88;5410258;26;20018;-68
2024/04/15 07:52:13;;;;;;;5.85;0.77;;;;;;;20.84;59.31;100444.94;5406663;26;20048;-69
2024/04/15 07:54:38;;;;;;;3.05;1.05;;;;;;;20.94;59.62;100447.13;5413399;26;20486;-69
2024/04/15 07:57:04;;;;;;;6.40;1.05;;;;;;;20.85;59.84;100439.44;5385649;26;20008;-68
2024/04/15 07:59:29;;;;;;;6.85;0.93;;;;;;;20.96;60.20;100445.09;5403486;26;20012;-70
2024/04/15 08:01:54;;;;;;;3.03;1.02;;;;;;;21.21;59.51;100443.34;5410832;26;20008;-70
2024/04/15 08:04:20;;;;;;;7.65;1.75;;;;;;;21.43;59.22;100449.09;5411733;26;20039;-68
2024/04/15 08:06:45;;;;;;;4.53;1.27;;;;;;;21.56;58.55;100453.47;5409783;26;20346;-68
2024/04/15 08:09:11;;;;;;;6.35;2.38;;;;;;;21.52;58.73;100448.59;5408350;26;20022;-69
2024/04/15 08:11:36;;;;;;;5.78;2.00;;;;;;;21.63;58.82;100444.44;5409894;26;20019;-71
2024/04/15 08:14:02;;;;;;;2.30;0.40;;;;;;;21.76;58.00;100451.44;5409467;26;20004;-69
2024/04/15 08:16:28;;;;;;;1.95;0.70;;;;;;;21.75;57.74;100450.63;5411178;26;20003;-70
2024/04/15 08:18:56;;;;;;;3.05;0.55;;;;;;;21.67;57.49;100450.13;5411756;26;20466;-69
2024/04/15 08:21:21;;;;;;;2.35;0.60;;;;;;;21.63;57.85;100454.22;5409518;26;20092;-70
2024/04/15 08:23:47;;;;;;;3.17;0.50;;;;;;;22.01;56.67;100454.06;5408936;26;20443;-71
2024/04/15 08:26:13;;;;;;;1.75;0.50;;;;;;;22.35;56.31;100458.00;5401355;26;20523;-70
2024/04/15 08:28:38;;;;;;;1.45;0.47;;;;;;;22.11;56.64;100449.09;5408928;26;20011;-70
2024/04/15 08:31:04;;;;;;;3.03;0.50;;;;;;;22.00;56.22;100450.63;5411403;26;20023;-70
2024/04/15 08:33:30;;;;;;;3.05;0.50;;;;;;;22.09;56.14;100454.63;5408596;26;20007;-75
2024/04/15 08:35:55;;;;;;;4.25;0.60;;;;;;;22.22;54.13;100447.53;5411220;26;20084;-72
2024/04/15 08:38:21;;;;;;;3.05;0.60;;;;;;;22.46;55.38;100433.38;5408075;26;20039;-76
2024/04/15 08:40:57;;;;;;;3.58;0.40;;;;;;;22.59;54.34;100440.38;5411057;26;20003;-75
2024/04/15 08:43:24;;;;;;;1.10;0.40;;;;;;;22.51;55.09;100441.50;5409769;26;20016;-74
2024/04/15 08:46:00;;;;;;;1.60;0.50;;;;;;;22.51;55.73;100441.50;5412203;26;20011;-75
2024/04/15 08:48:27;;;;;;;4.10;0.45;;;;;;;22.45;55.76;100429.13;5409935;26;20340;-75
2024/04/15 08:50:57;;;;;;;1.27;0.45;;;;;;;22.42;55.95;100427.72;5409587;26;20008;-74
2024/04/15 08:53:24;;;;;;;1.33;0.40;;;;;;;22.40;56.80;100429.78;5408928;26;20011;-75
2024/04/15 08:55:49;;;;;;;3.25;0.52;;;;;;;22.33;56.71;100428.22;5411877;26;20400;-75
2024/04/15 08:58:15;;;;;;;1.30;0.80;;;;;;;22.08;57.17;100426.47;5388844;26;20016;-74
2024/04/15 09:00:42;;;;;;;1.58;0.40;;;;;;;21.73;57.62;100428.03;5403641;26;20135;-70
2024/04/15 09:03:09;;;;;;;1.67;0.60;;;;;;;21.70;58.48;100431.13;5408065;26;20043;-70
2024/04/15 09:05:35;;;;;;;3.22;0.52;;;;;;;21.83;58.40;100433.63;5411414;26;20018;-69
2024/04/15 09:08:01;;;;;;;2.65;0.40;;;;;;;21.96;57.84;100436.16;5409173;26;20003;-70
2024/04/15 09:10:27;;;;;;;2.75;0.60;;;;;;;22.01;57.57;100430.19;5410301;26;20027;-69
2024/04/15 09:12:52;;;;;;;1.20;0.45;;;;;;;21.92;57.90;100434.16;5394830;26;20008;-69
2024/04/15 09:15:23;;;;;;;2.83;0.52;;;;;;;21.89;58.05;100431.94;5408823;26;20004;-70
2024/04/15 09:17:52;;;;;;;3.38;0.57;;;;;;;21.81;57.50;100430.38;5409580;26;20083;-69
2024/04/15 09:20:19;;;;;;;2.40;0.57;;;;;;;21.81;58.47;100431.19;5408848;26;20008;-70
2024/04/15 09:22:45;;;;;;;3.15;0.60;;;;;;;21.82;58.33;100427.53;5411742;26;20323;-69
2024/04/15 09:25:10;;;;;;;2.25;0.50;;;;;;;21.76;58.20;100422.28;5410952;26;20015;-69
2024/04/15 09:27:36;;;;;;;3.45;0.43;;;;;;;21.72;58.89;100426.41;5411650;26;20011;-69
2024/04/15 09:30:03;;;;;;;0.82;0.35;;;;;;;21.69;58.64;100421.56;5411718;26;20080;-69
2024/04/15 09:32:29;;;;;;;2.92;0.70;;;;;;;21.57;58.68;100415.34;5409756;26;20019;-69
2024/04/15 09:35:03;;;;;;;5.43;0.60;;;;;;;21.59;59.21;100411.44;5408749;26;20018;-69
2024/04/15 09:37:31;;;;;;;2.40;0.60;;;;;;;21.70;59.18;100412.56;5411150;26;20019;-69
2024/04/15 09:39:57;;;;;;;1.83;0.50;;;;;;;21.73;58.95;100406.84;5414279;26;20126;-70
2024/04/15 09:42:24;;;;;;;1.75;0.75;;;;;;;21.77;58.64;100408.00;5413201;26;20003;-69
2024/04/15 09:44:49;;;;;;;1.20;0.55;;;;;;;21.79;58.99;100411.22;5414517;26;20027;-69
2024/04/15 09:47:16;;;;;;;2.92;0.55;;;;;;;21.76;59.71;100411.66;5412963;26;20012;-70
2024/04/15 09:49:42;;;;;;;1.20;0.60;;;;;;;21.82;59.75;100421.41;5412573;26;20008;-70
2024/04/15 09:52:20;;;;;;;1.63;0.70;;;;;;;21.83;59.74;100413.22;5415328;26;20017;-70
2024/04/15 09:54:46;;;;;;;5.57;0.98;;;;;;;21.89;59.72;100406.25;5413628;26;20012;-69
2024/04/15 09:57:18;;;;;;;1.80;0.77;;;;;;;21.96;59.41;100398.22;5411861;26;20075;-70
2024/04/15 09:59:45;;;;;;;2.95;0.70;;;;;;;21.99;59.57;100395.94;5413911;26;20007;-71
2024/04/15 10:02:26;;;;;;;3.85;1.10;;;;;;;21.97;59.98;100392.69;5413427;26;20019;-69
2024/04/15 10:04:57;;;;;;;4.53;0.65;;;;;;;22.07;59.71;100393.03;5413536;26;20026;-69
2024/04/15 10:07:26;;;;;;;4.05;0.70;;;;;;;22.15;59.69;100389.28;5410715;26;20039;-68
2024/04/15 10:09:52;;;;;;;1.75;0.90;;;;;;;22.20;59.41;100375.34;5413591;26;20003;-69
2024/04/15 10:12:18;;;;;;;3.55;1.08;;;;;;;22.14;60.14;100377.84;5408432;26;20008;-68
2024/04/15 10:14:44;;;;;;;2.15;0.90;;;;;;;22.14;60.14;100372.53;5412127;26;20470;-69
2024/04/15 10:17:10;;;;;;;3.70;1.10;;;;;;;22.25;60.21;100365.66;5405540;26;20391;-69
2024/04/15 10:19:35;;;;;;;3.67;0.82;;;;;;;22.39;60.06;100369.75;5409702;26;20030;-69
2024/04/15 10:22:01;;;;;;;2.05;1.38;;;;;;;22.43;59.99;100370.13;5412248;26;20027;-73
2024/04/15 10:24:27;;;;;;;5.40;1.02;;;;;;;22.39;60.49;100369.75;5409018;26;20015;-72
2024/04/15 10:26:53;;;;;;;1.92;1.08;;;;;;;22.54;60.52;100366.72;5403786;26;20003;-71
2024/04/15 10:29:21;;;;;;;2.22;0.95;;;;;;;22.60;60.20;100365.00;5409605;26;20521;-70
2024/04/15 10:31:54;;;;;;;3.05;1.23;;;;;;;22.44;59.74;100361.94;5416752;26;20469;-71
2024/04/15 10:34:24;;;;;;;3.83;1.50;;;;;;;22.39;61.21;100364.44;5408297;26;20011;-71
2024/04/15 10:36:55;;;;;;;4.30;1.48;;;;;;;22.36;61.46;100374.72;5411529;26;20018;-71
2024/04/15 10:39:22;;;;;;;4.65;1.42;;;;;;;22.31;61.60;100372.72;5404551;26;20008;-70
2024/04/15 10:41:48;;;;;;;1.98;1.25;;;;;;;22.35;61.41;100362.47;5399812;26;20016;-70
2024/04/15 10:44:14;;;;;;;2.22;1.38;;;;;;;22.34;61.54;100358.19;5400170;26;20007;-71
2024/04/15 10:46:41;;;;;;;3.33;1.40;;;;;;;22.29;61.86;100348.25;5404561;26;20007;-71
2024/04/15 10:49:07;;;;;;;3.15;1.35;;;;;;;22.34;61.85;100355.53;5409416;26;20157;-70
2024/04/15 10:51:33;;;;;;;5.38;1.25;;;;;;;22.33;62.04;100354.72;5410596;26;20070;-71
2024/04/15 10:53:59;;;;;;;4.05;1.15;;;;;;;22.47;61.70;100372.09;5408857;26;20008;-71
2024/04/15 10:56:24;;;;;;;5.18;1.80;;;;;;;22.45;61.59;100362.75;5407371;26;20308;-71
2024/04/15 10:58:50;;;;;;;4.97;1.88;;;;;;;22.47;61.56;100358.03;5403565;26;20019;-71
2024/04/15 11:01:16;;;;;;;4.35;1.85;;;;;;;22.35;61.72;100359.81;5404044;26;20113;-71
2024/04/15 11:03:42;;;;;;;3.13;1.50;;;;;;;22.37;62.03;100363.06;5411029;26;20014;-71
2024/04/15 11:06:09;;;;;;;7.90;1.92;;;;;;;22.43;61.68;100355.00;5401160;26;21597;-71
2024/04/15 11:08:34;;;;;;;8.50;1.73;;;;;;;22.46;61.89;100359.06;5401107;26;20011;-71
2024/04/15 11:11:00;;;;;;;5.38;2.47;;;;;;;22.41;62.20;100350.97;5407565;26;20011;-71
2024/04/15 11:13:26;;;;;;;6.03;2.88;;;;;;;22.44;62.36;100345.19;5399254;26;20012;-71
2024/04/15 11:15:55;;;;;;;3.75;1.75;;;;;;;22.35;62.36;100346.53;5410858;26;20023;-71
2024/04/15 11:18:22;;;;;;;6.72;2.13;;;;;;;22.23;62.91;100338.53;5406121;26;20007;-71